Time;durP1;ratioP1;P1;durP2;ratioP2;P2;SDS_P1;SDS_P2;PMS_P1;PMS_P2;Temp;Humidity;BMP_temperature;BMP_pressure;BME280_temperature;BME280_humidity;BME280_pressure;Samples;Min_cycle;Max_cycle;Signal;HPM_P1;HPM_P2
2022/03/02 00:02:05;;;;;;;46.78;32.53;;;6.50;99.90;;;;;;5036048;28;20642;-63
2022/03/02 00:04:31;;;;;;;48.17;34.88;;;6.50;99.90;;;;;;5046692;28;20033;-63
2022/03/02 00:06:56;;;;;;;45.80;32.35;;;6.50;99.90;;;;;;5047709;28;20044;-63
2022/03/02 00:09:22;;;;;;;46.47;32.75;;;6.50;99.90;;;;;;5030539;28;20041;-63
2022/03/02 00:11:47;;;;;;;46.95;32.70;;;6.50;99.90;;;;;;5034489;28;20540;-63
2022/03/02 00:14:13;;;;;;;57.13;36.80;;;6.60;99.90;;;;;;5045690;28;20052;-63
2022/03/02 00:16:39;;;;;;;48.92;32.80;;;6.60;99.90;;;;;;5046660;28;20123;-63
2022/03/02 00:19:05;;;;;;;44.67;32.03;;;6.60;99.90;;;;;;5029573;28;20049;-62
2022/03/02 00:21:31;;;;;;;55.65;36.72;;;6.60;99.90;;;;;;5037050;28;20080;-62
2022/03/02 00:23:57;;;;;;;49.70;32.95;;;6.60;99.90;;;;;;5047662;28;20162;-62
2022/03/02 00:26:23;;;;;;;43.25;31.77;;;6.60;99.90;;;;;;5033585;28;20048;-63
2022/03/02 00:28:50;;;;;;;46.33;32.35;;;6.60;99.90;;;;;;5042485;28;20100;-62
2022/03/02 00:31:15;;;;;;;44.45;32.80;;;6.70;99.90;;;;;;5042531;28;20053;-63
2022/03/02 00:33:41;;;;;;;47.35;32.60;;;6.60;99.90;;;;;;5045172;28;20040;-62
2022/03/02 00:36:06;;;;;;;45.05;30.85;;;6.60;99.90;;;;;;5047567;28;20590;-63
2022/03/02 00:38:32;;;;;;;43.90;31.75;;;6.60;99.90;;;;;;5044333;28;20472;-63
2022/03/02 00:40:58;;;;;;;45.10;32.80;;;6.60;99.90;;;;;;5039378;28;20041;-63
2022/03/02 00:43:24;;;;;;;45.80;32.53;;;6.60;99.90;;;;;;5045412;28;20520;-63
2022/03/02 00:45:49;;;;;;;46.00;33.53;;;6.60;99.90;;;;;;5045880;28;20068;-62
2022/03/02 00:48:15;;;;;;;50.75;35.00;;;6.60;99.90;;;;;;5035904;28;20037;-63
2022/03/02 00:50:41;;;;;;;50.28;34.33;;;6.60;99.90;;;;;;5047981;28;20488;-63
2022/03/02 00:53:07;;;;;;;50.90;33.28;;;6.60;99.90;;;;;;5040097;28;20103;-63
2022/03/02 00:55:34;;;;;;;47.63;32.55;;;6.60;99.90;;;;;;5038922;28;20049;-63
2022/03/02 00:58:02;;;;;;;51.13;34.78;;;6.60;99.90;;;;;;5046962;28;20140;-62
2022/03/02 01:00:28;;;;;;;47.83;32.95;;;6.60;99.90;;;;;;5041358;28;20061;-63
2022/03/02 01:02:54;;;;;;;45.05;31.98;;;6.50;99.90;;;;;;5050460;28;20043;-63
2022/03/02 01:05:19;;;;;;;55.67;35.50;;;6.50;99.90;;;;;;5052234;28;20037;-62
2022/03/02 01:07:45;;;;;;;48.55;34.20;;;6.50;99.90;;;;;;5046148;28;20478;-63
2022/03/02 01:10:11;;;;;;;50.13;34.08;;;6.50;99.90;;;;;;5038917;28;20128;-62
2022/03/02 01:12:39;;;;;;;49.00;33.47;;;6.50;99.90;;;;;;5062096;28;20048;-63
2022/03/02 01:15:06;;;;;;;49.20;33.03;;;6.50;99.90;;;;;;5046628;28;20049;-63
2022/03/02 01:17:32;;;;;;;53.60;36.60;;;6.40;99.90;;;;;;5038910;28;20063;-63
2022/03/02 01:19:57;;;;;;;48.85;34.03;;;6.50;99.90;;;;;;5038327;28;20497;-63
2022/03/02 01:22:23;;;;;;;51.60;34.15;;;6.50;99.90;;;;;;5045308;28;20508;-62
2022/03/02 01:24:49;;;;;;;55.08;35.80;;;6.50;99.90;;;;;;5051425;28;20529;-63
2022/03/02 01:27:14;;;;;;;53.30;35.80;;;6.50;99.90;;;;;;5043602;28;20071;-63
2022/03/02 01:29:40;;;;;;;44.58;31.13;;;6.50;99.90;;;;;;5050089;28;20637;-62
2022/03/02 01:32:08;;;;;;;48.50;33.13;;;6.50;99.90;;;;;;5043243;28;20037;-63
2022/03/02 01:34:34;;;;;;;49.67;34.05;;;6.50;99.90;;;;;;5049794;28;20623;-63
2022/03/02 01:36:59;;;;;;;51.70;33.85;;;6.50;99.90;;;;;;5051584;28;20048;-63
2022/03/02 01:39:25;;;;;;;50.08;34.25;;;6.50;99.90;;;;;;5048488;28;20924;-63
2022/03/02 01:41:51;;;;;;;50.20;33.75;;;6.50;99.90;;;;;;5050088;28;20129;-63
2022/03/02 01:44:17;;;;;;;53.13;33.33;;;6.40;99.90;;;;;;5044891;28;20119;-63
2022/03/02 01:46:42;;;;;;;50.78;33.90;;;6.40;99.90;;;;;;5041242;28;20057;-63
2022/03/02 01:49:09;;;;;;;43.72;31.92;;;6.40;99.90;;;;;;5048899;28;20114;-63
2022/03/02 01:51:34;;;;;;;47.75;33.28;;;6.40;99.90;;;;;;5051028;28;20044;-63
2022/03/02 01:54:00;;;;;;;51.47;34.03;;;6.40;99.90;;;;;;5043391;28;20052;-63
2022/03/02 01:56:27;;;;;;;46.05;32.47;;;6.40;99.90;;;;;;5049335;28;20486;-63
2022/03/02 01:58:53;;;;;;;49.05;32.80;;;6.40;99.90;;;;;;5047164;28;20096;-63
2022/03/02 02:01:19;;;;;;;48.35;32.90;;;6.40;99.90;;;;;;5047596;28;20127;-63
2022/03/02 02:03:44;;;;;;;42.70;31.02;;;6.40;99.90;;;;;;5048331;28;20041;-63
2022/03/02 02:06:11;;;;;;;47.60;33.58;;;6.40;99.90;;;;;;5048484;28;20049;-63
2022/03/02 02:08:37;;;;;;;51.72;33.88;;;6.30;99.90;;;;;;5039961;28;20045;-63
2022/03/02 02:11:03;;;;;;;58.65;35.22;;;6.40;99.90;;;;;;5050439;28;20060;-63
2022/03/02 02:13:34;;;;;;;48.38;34.05;;;6.40;99.90;;;;;;5047345;28;20056;-63
2022/03/02 02:16:00;;;;;;;42.00;30.88;;;6.40;99.90;;;;;;5049254;28;20057;-62
2022/03/02 02:18:26;;;;;;;52.70;32.30;;;6.40;99.90;;;;;;5049272;28;20128;-62
2022/03/02 02:20:52;;;;;;;53.30;34.30;;;6.40;99.90;;;;;;5050471;28;20472;-63
2022/03/02 02:23:17;;;;;;;53.65;36.33;;;6.40;99.90;;;;;;5045339;28;20037;-63
2022/03/02 02:25:43;;;;;;;56.42;35.90;;;6.30;99.90;;;;;;5048841;28;20041;-63
2022/03/02 02:28:10;;;;;;;53.20;34.80;;;6.30;99.90;;;;;;5049861;28;20043;-63
2022/03/02 02:30:36;;;;;;;47.50;32.85;;;6.30;99.90;;;;;;5038546;28;20391;-63
2022/03/02 02:33:02;;;;;;;51.40;34.35;;;6.30;99.90;;;;;;5052423;28;20390;-63
2022/03/02 02:35:28;;;;;;;56.22;34.97;;;6.30;99.90;;;;;;5038214;28;20053;-63
2022/03/02 02:37:54;;;;;;;51.80;35.03;;;6.20;99.90;;;;;;5046943;28;20404;-62
2022/03/02 02:40:21;;;;;;;49.70;33.72;;;6.20;99.90;;;;;;5048706;28;20045;-63
2022/03/02 02:42:48;;;;;;;44.78;31.83;;;6.20;99.90;;;;;;5037700;28;20400;-63
2022/03/02 02:45:17;;;;;;;49.08;34.45;;;6.20;99.90;;;;;;5049300;28;20037;-63
2022/03/02 02:47:44;;;;;;;46.53;32.20;;;6.20;99.90;;;;;;5032053;28;20485;-63
2022/03/02 02:50:19;;;;;;;45.55;33.13;;;6.20;99.90;;;;;;5078562;28;20033;-63
2022/03/02 02:52:45;;;;;;;53.38;33.63;;;6.20;99.90;;;;;;5043323;28;20141;-62
2022/03/02 02:55:13;;;;;;;55.13;35.90;;;6.20;99.90;;;;;;5046698;28;20556;-62
2022/03/02 02:57:39;;;;;;;49.30;33.35;;;6.20;99.90;;;;;;5045121;28;20041;-62
2022/03/02 03:00:09;;;;;;;53.78;34.50;;;6.10;99.90;;;;;;5048440;28;20056;-62
2022/03/02 03:02:35;;;;;;;53.28;35.63;;;6.10;99.90;;;;;;5050097;28;20036;-62
2022/03/02 03:05:01;;;;;;;47.42;33.10;;;6.10;99.90;;;;;;5047050;28;20047;-62
2022/03/02 03:07:26;;;;;;;53.92;36.17;;;6.00;99.90;;;;;;5033753;28;20045;-62
2022/03/02 03:09:52;;;;;;;55.47;36.90;;;6.00;99.90;;;;;;5036431;28;20048;-62
2022/03/02 03:12:18;;;;;;;50.00;35.17;;;6.00;99.90;;;;;;5047325;28;20045;-62
2022/03/02 03:14:43;;;;;;;50.78;34.30;;;6.00;99.90;;;;;;5049767;28;20044;-62
2022/03/02 03:17:09;;;;;;;56.97;34.72;;;5.90;99.90;;;;;;5052646;28;20168;-62
2022/03/02 03:19:35;;;;;;;55.83;37.65;;;5.90;99.90;;;;;;5041803;28;20124;-62
2022/03/02 03:22:07;;;;;;;58.45;36.85;;;5.90;99.90;;;;;;5042790;28;20492;-62
2022/03/02 03:24:34;;;;;;;58.88;38.42;;;5.80;99.90;;;;;;5043871;28;20033;-62
2022/03/02 03:27:00;;;;;;;56.55;36.25;;;5.80;99.90;;;;;;5046491;28;20514;-62
2022/03/02 03:29:26;;;;;;;61.88;38.92;;;5.60;99.90;;;;;;5048596;28;20045;-62
2022/03/02 03:31:51;;;;;;;64.57;40.08;;;5.70;99.90;;;;;;5049782;28;20063;-62
2022/03/02 03:34:17;;;;;;;59.30;38.72;;;5.60;99.90;;;;;;5045461;28;20068;-63
2022/03/02 03:36:42;;;;;;;62.03;39.95;;;5.60;99.90;;;;;;5042615;28;20049;-63
2022/03/02 03:39:09;;;;;;;65.32;40.65;;;5.60;99.90;;;;;;5029856;28;20049;-62
2022/03/02 03:41:35;;;;;;;68.93;42.22;;;5.60;99.90;;;;;;5040930;28;20390;-62
2022/03/02 03:44:00;;;;;;;63.20;38.53;;;5.60;99.90;;;;;;5048357;28;20053;-62
2022/03/02 03:46:26;;;;;;;65.45;40.70;;;5.50;99.90;;;;;;5043209;28;20072;-62
2022/03/02 03:48:52;;;;;;;66.25;38.67;;;5.50;99.90;;;;;;5048381;28;20484;-63
2022/03/02 03:51:18;;;;;;;64.38;40.42;;;5.40;99.90;;;;;;5047080;28;20106;-62
2022/03/02 03:53:43;;;;;;;66.82;41.60;;;5.50;99.90;;;;;;5045307;28;20048;-62
2022/03/02 03:56:09;;;;;;;68.07;40.80;;;5.40;99.90;;;;;;5046423;28;20072;-62
2022/03/02 03:58:35;;;;;;;72.68;41.20;;;5.40;99.90;;;;;;5037619;28;20064;-63
2022/03/02 04:01:00;;;;;;;69.07;40.92;;;5.40;99.90;;;;;;5032925;28;20562;-63
2022/03/02 04:03:26;;;;;;;60.83;37.55;;;5.40;99.90;;;;;;5044786;28;20041;-63
2022/03/02 04:05:51;;;;;;;64.78;39.13;;;5.40;99.90;;;;;;5048105;28;20071;-62
2022/03/02 04:08:17;;;;;;;67.10;40.28;;;5.30;99.90;;;;;;5035478;28;20107;-62
2022/03/02 04:10:45;;;;;;;60.35;38.92;;;5.40;99.90;;;;;;5037445;28;20037;-62
2022/03/02 04:13:11;;;;;;;65.55;37.97;;;5.40;99.90;;;;;;5046661;28;20370;-62
2022/03/02 04:15:37;;;;;;;67.32;39.13;;;5.40;99.90;;;;;;5047884;28;20045;-62
2022/03/02 04:18:03;;;;;;;61.53;39.03;;;5.40;99.90;;;;;;5046752;28;20052;-62
2022/03/02 04:20:28;;;;;;;66.47;38.28;;;5.50;99.90;;;;;;5046077;28;20099;-62
2022/03/02 04:22:54;;;;;;;70.50;38.53;;;5.50;99.90;;;;;;5047448;28;20040;-63
2022/03/02 04:25:19;;;;;;;65.93;37.83;;;5.50;99.90;;;;;;5028126;28;20058;-62
2022/03/02 04:27:45;;;;;;;63.72;38.90;;;5.30;99.90;;;;;;5030707;28;20037;-62
2022/03/02 04:30:13;;;;;;;63.42;39.10;;;5.30;99.90;;;;;;5031164;28;20128;-62
2022/03/02 04:32:39;;;;;;;63.03;40.15;;;5.30;99.90;;;;;;5050503;28;20400;-62
2022/03/02 04:35:06;;;;;;;61.35;38.38;;;5.30;99.90;;;;;;5046701;28;20049;-62
2022/03/02 04:37:32;;;;;;;60.80;36.53;;;5.30;99.90;;;;;;5044370;28;20472;-62
2022/03/02 04:39:58;;;;;;;62.85;36.33;;;5.20;99.90;;;;;;5045799;28;20195;-63
2022/03/02 04:42:23;;;;;;;54.80;36.83;;;5.40;99.90;;;;;;5040167;28;20041;-62
2022/03/02 04:44:49;;;;;;;63.50;40.28;;;5.30;99.90;;;;;;5045823;28;20045;-62
2022/03/02 04:47:14;;;;;;;58.05;35.55;;;5.30;99.90;;;;;;5047429;28;20056;-63
2022/03/02 04:49:40;;;;;;;53.63;34.28;;;5.30;99.90;;;;;;5047118;28;20056;-62
2022/03/02 04:52:06;;;;;;;60.45;36.60;;;5.30;99.90;;;;;;5037647;28;20554;-62
2022/03/02 04:57:16;;;;;;;61.60;38.85;;;5.20;99.90;;;;;;5050530;28;20186;-62
2022/03/02 04:59:41;;;;;;;57.13;37.65;;;5.20;99.90;;;;;;5045459;28;20524;-62
2022/03/02 05:02:07;;;;;;;64.32;38.88;;;5.10;99.90;;;;;;5050179;28;20234;-62
2022/03/02 05:04:33;;;;;;;60.60;37.45;;;5.10;99.90;;;;;;5048369;28;20042;-62
2022/03/02 05:06:58;;;;;;;57.45;37.58;;;5.10;99.90;;;;;;5039879;28;20041;-62
2022/03/02 05:09:24;;;;;;;59.70;36.15;;;5.10;99.90;;;;;;5044923;28;20037;-62
2022/03/02 05:11:49;;;;;;;59.35;36.42;;;5.00;99.90;;;;;;5051146;28;20098;-62
2022/03/02 05:14:15;;;;;;;58.88;37.97;;;5.10;99.90;;;;;;5045379;28;20568;-63
2022/03/02 05:16:41;;;;;;;58.35;37.50;;;5.00;99.90;;;;;;5042316;28;20045;-63
2022/03/02 05:19:06;;;;;;;55.58;36.55;;;5.00;99.90;;;;;;5045765;28;20044;-63
2022/03/02 05:21:32;;;;;;;58.20;36.13;;;5.00;99.90;;;;;;5046198;28;20120;-63
2022/03/02 05:23:58;;;;;;;55.70;36.35;;;5.00;99.90;;;;;;5046879;28;20041;-63
2022/03/02 05:26:24;;;;;;;52.95;35.53;;;5.10;99.90;;;;;;5050118;28;20060;-62
2022/03/02 05:28:49;;;;;;;62.42;36.97;;;5.00;99.90;;;;;;5048824;28;20095;-63
2022/03/02 05:31:15;;;;;;;58.38;37.28;;;5.00;99.90;;;;;;5041502;28;20099;-63
2022/03/02 05:33:40;;;;;;;56.70;36.42;;;5.00;99.90;;;;;;5049013;28;20037;-63
2022/03/02 05:36:06;;;;;;;66.95;39.35;;;5.00;99.90;;;;;;5050728;28;20132;-63
2022/03/02 05:38:31;;;;;;;53.88;34.72;;;5.00;99.90;;;;;;5050723;28;20067;-63
2022/03/02 05:40:57;;;;;;;57.60;35.90;;;5.00;99.90;;;;;;5049952;28;20051;-63
2022/03/02 05:43:22;;;;;;;58.50;36.10;;;5.00;99.90;;;;;;5045944;28;20457;-63
2022/03/02 05:45:48;;;;;;;50.85;35.58;;;5.00;99.90;;;;;;5048796;28;20128;-63
2022/03/02 05:48:14;;;;;;;58.83;36.13;;;4.90;99.90;;;;;;5049707;28;20080;-63
2022/03/02 05:50:39;;;;;;;50.15;33.17;;;4.90;99.90;;;;;;5045508;28;20126;-63
2022/03/02 05:53:05;;;;;;;52.97;34.75;;;5.00;99.90;;;;;;5049871;28;20447;-63
2022/03/02 05:55:30;;;;;;;66.13;35.55;;;5.00;99.90;;;;;;5048633;28;20053;-63
2022/03/02 05:57:56;;;;;;;56.40;34.00;;;4.90;99.90;;;;;;5051321;28;20037;-63
2022/03/02 06:00:21;;;;;;;57.92;36.10;;;4.90;99.90;;;;;;5048599;28;20386;-63
2022/03/02 06:02:47;;;;;;;57.83;36.17;;;4.80;99.90;;;;;;5050200;28;20051;-63
2022/03/02 06:05:12;;;;;;;58.63;38.05;;;4.90;99.90;;;;;;5047215;28;20041;-63
2022/03/02 06:07:38;;;;;;;53.92;35.20;;;4.90;99.90;;;;;;5047269;28;20045;-63
2022/03/02 06:10:05;;;;;;;51.97;35.70;;;4.90;99.90;;;;;;5042008;28;20459;-63
2022/03/02 06:12:31;;;;;;;55.60;34.83;;;4.80;99.90;;;;;;5050790;28;20045;-63
2022/03/02 06:14:57;;;;;;;49.58;32.70;;;4.70;99.90;;;;;;5044352;28;20152;-63
2022/03/02 06:17:23;;;;;;;49.30;34.47;;;4.70;99.90;;;;;;5050193;28;20110;-63
2022/03/02 06:19:49;;;;;;;57.90;34.28;;;4.70;99.90;;;;;;5046335;28;20549;-63
2022/03/02 06:22:17;;;;;;;47.92;32.70;;;4.80;99.90;;;;;;5039598;28;20045;-63
2022/03/02 06:24:43;;;;;;;51.00;34.05;;;4.70;99.90;;;;;;5049046;28;20036;-63
2022/03/02 06:27:08;;;;;;;53.13;37.35;;;4.70;99.90;;;;;;5049943;28;20376;-63
2022/03/02 06:29:34;;;;;;;55.92;35.17;;;4.60;99.90;;;;;;5046240;28;20069;-63
2022/03/02 06:32:00;;;;;;;50.13;34.92;;;4.60;99.90;;;;;;5047991;28;20044;-63
2022/03/02 06:34:26;;;;;;;55.20;35.97;;;4.60;99.90;;;;;;5054776;28;20045;-63
2022/03/02 06:36:52;;;;;;;59.35;35.67;;;4.60;99.90;;;;;;5035105;28;20067;-63
2022/03/02 06:39:22;;;;;;;55.17;35.35;;;4.60;99.90;;;;;;5048653;28;20489;-63
2022/03/02 06:42:23;;;;;;;52.08;34.72;;;4.60;99.90;;;;;;5036364;28;20532;-63
2022/03/02 06:45:11;;;;;;;52.80;33.92;;;4.60;99.90;;;;;;5043573;28;20370;-63
2022/03/02 06:47:48;;;;;;;54.55;36.20;;;4.60;99.90;;;;;;5045034;28;20049;-63
2022/03/02 06:50:16;;;;;;;57.53;36.42;;;4.60;99.90;;;;;;5045177;28;20370;-63
2022/03/02 06:52:45;;;;;;;52.65;34.85;;;4.60;99.90;;;;;;5049840;28;20067;-63
2022/03/02 06:55:14;;;;;;;55.20;37.05;;;4.50;99.90;;;;;;5047825;28;20121;-63
2022/03/02 06:57:40;;;;;;;54.60;35.20;;;4.50;99.90;;;;;;5042469;28;20041;-63
2022/03/02 07:00:09;;;;;;;60.22;37.97;;;4.60;99.90;;;;;;5044988;28;20049;-63
2022/03/02 07:03:09;;;;;;;54.38;35.50;;;4.60;99.90;;;;;;5047135;28;20042;-63
2022/03/02 07:05:37;;;;;;;59.00;38.25;;;4.60;99.90;;;;;;5038766;28;20064;-63
2022/03/02 07:08:05;;;;;;;57.60;37.53;;;4.50;99.90;;;;;;5046042;28;20056;-63
2022/03/02 07:10:35;;;;;;;59.85;37.95;;;4.50;99.90;;;;;;5040543;28;20053;-63
2022/03/02 07:13:04;;;;;;;56.97;37.40;;;4.60;99.90;;;;;;5042906;28;20086;-63
2022/03/02 07:15:31;;;;;;;61.42;36.58;;;4.60;99.90;;;;;;5033124;28;20037;-63
2022/03/02 07:17:59;;;;;;;60.08;37.03;;;4.60;99.90;;;;;;5047758;28;20072;-63
2022/03/02 07:20:27;;;;;;;56.03;35.70;;;4.60;99.90;;;;;;5046680;28;20041;-63
2022/03/02 07:22:53;;;;;;;51.72;34.10;;;4.60;99.90;;;;;;5046752;28;20536;-63
2022/03/02 07:25:33;;;;;;;63.45;37.83;;;4.60;99.90;;;;;;5044631;28;20109;-63
2022/03/02 07:28:00;;;;;;;53.10;35.47;;;4.60;99.90;;;;;;5047582;28;20102;-63
2022/03/02 07:30:27;;;;;;;54.30;33.42;;;4.60;99.90;;;;;;5045304;28;20041;-63
2022/03/02 07:32:55;;;;;;;50.42;33.80;;;4.80;99.90;;;;;;5047319;28;20041;-63
2022/03/02 07:35:23;;;;;;;58.38;35.35;;;4.90;99.90;;;;;;5031460;28;20045;-63
2022/03/02 07:37:49;;;;;;;54.08;34.45;;;5.10;99.90;;;;;;5043232;28;20044;-63
2022/03/02 07:40:15;;;;;;;48.05;33.88;;;5.10;99.90;;;;;;5046240;28;20052;-63
2022/03/02 07:42:41;;;;;;;49.95;33.13;;;5.20;99.90;;;;;;5048096;28;20041;-63
2022/03/02 07:45:07;;;;;;;54.70;35.05;;;5.20;99.90;;;;;;5044699;28;20056;-63
2022/03/02 07:47:33;;;;;;;53.22;34.30;;;5.20;99.90;;;;;;5048383;28;20045;-63
2022/03/02 07:49:59;;;;;;;54.53;35.80;;;5.10;99.90;;;;;;5047749;28;20045;-63
2022/03/02 07:52:27;;;;;;;52.97;35.85;;;5.30;99.90;;;;;;5045033;28;20049;-63
2022/03/02 07:54:57;;;;;;;53.42;34.83;;;5.50;99.90;;;;;;5041953;28;20512;-63
2022/03/02 07:57:23;;;;;;;58.63;40.05;;;5.80;99.90;;;;;;5046000;28;20393;-63
2022/03/02 07:59:50;;;;;;;49.45;33.45;;;5.70;99.90;;;;;;5046210;28;20073;-63
2022/03/02 08:02:20;;;;;;;49.25;34.22;;;5.60;99.90;;;;;;5044850;28;20111;-63
2022/03/02 08:04:50;;;;;;;51.90;33.28;;;5.60;99.90;;;;;;5048054;28;20126;-63
2022/03/02 08:07:16;;;;;;;49.85;35.13;;;5.50;99.90;;;;;;5047120;28;20059;-63
2022/03/02 08:09:42;;;;;;;53.83;34.42;;;5.60;99.90;;;;;;5047726;28;20045;-63
2022/03/02 08:12:08;;;;;;;52.22;32.67;;;5.60;99.90;;;;;;5046633;28;20222;-63
2022/03/02 08:14:34;;;;;;;52.47;34.00;;;5.60;99.90;;;;;;5043398;28;20044;-64
2022/03/02 08:17:00;;;;;;;50.08;33.10;;;5.60;99.90;;;;;;5046802;28;20040;-64
2022/03/02 08:19:25;;;;;;;46.85;31.65;;;5.70;99.90;;;;;;5047283;28;20450;-64
2022/03/02 08:22:02;;;;;;;52.22;33.88;;;6.00;99.90;;;;;;5042161;28;20056;-64
2022/03/02 08:24:30;;;;;;;49.03;33.00;;;6.00;99.90;;;;;;5042431;28;20087;-64
2022/03/02 08:27:02;;;;;;;49.55;35.13;;;6.10;99.90;;;;;;5043417;28;20053;-63
2022/03/02 08:29:32;;;;;;;50.95;34.00;;;6.10;99.90;;;;;;5045834;28;20049;-64
2022/03/02 08:32:00;;;;;;;47.92;33.28;;;6.10;99.90;;;;;;5045843;28;20056;-64
2022/03/02 08:34:28;;;;;;;48.55;32.30;;;6.20;99.90;;;;;;5047353;28;20049;-64
2022/03/02 08:36:54;;;;;;;50.42;32.75;;;6.30;99.90;;;;;;5047488;28;20499;-64
2022/03/02 08:39:20;;;;;;;71.78;35.67;;;6.40;99.90;;;;;;5040019;28;20048;-64
2022/03/02 08:41:46;;;;;;;46.38;31.30;;;6.30;99.90;;;;;;5041673;28;20038;-64
2022/03/02 08:44:12;;;;;;;48.67;33.00;;;6.30;99.90;;;;;;5038767;28;20101;-64
2022/03/02 08:46:39;;;;;;;49.50;34.90;;;6.70;99.90;;;;;;5046120;28;20448;-64
2022/03/02 08:49:05;;;;;;;49.08;31.98;;;6.70;99.90;;;;;;5047894;28;20033;-64
2022/03/02 08:51:33;;;;;;;52.85;32.67;;;6.60;99.90;;;;;;5045999;28;20854;-63
2022/03/02 08:54:01;;;;;;;47.85;30.88;;;6.60;99.90;;;;;;5048141;28;20069;-63
2022/03/02 08:56:27;;;;;;;49.15;32.55;;;6.70;99.90;;;;;;5035738;28;20055;-64
2022/03/02 08:58:54;;;;;;;45.55;29.70;;;6.80;99.90;;;;;;5047268;28;20036;-64
2022/03/02 09:01:19;;;;;;;43.60;28.98;;;6.70;99.90;;;;;;5036779;28;20048;-65
2022/03/02 09:03:48;;;;;;;46.95;31.38;;;6.90;99.90;;;;;;5037195;28;20045;-64
2022/03/02 09:06:15;;;;;;;56.05;35.55;;;7.00;99.90;;;;;;5069217;28;20378;-62
2022/03/02 09:08:41;;;;;;;53.20;35.10;;;6.90;99.90;;;;;;5045948;28;20033;-62
2022/03/02 09:11:08;;;;;;;48.33;31.88;;;6.80;99.90;;;;;;5029962;28;20108;-62
2022/03/02 09:13:36;;;;;;;48.65;32.25;;;6.80;99.90;;;;;;5045526;28;20045;-62
2022/03/02 09:16:02;;;;;;;51.33;34.10;;;7.00;99.90;;;;;;5042713;28;20149;-61
2022/03/02 09:18:28;;;;;;;48.05;31.83;;;6.90;99.90;;;;;;5074870;28;20045;-61
2022/03/02 09:20:58;;;;;;;50.63;32.40;;;6.90;99.90;;;;;;5046555;28;20103;-62
2022/03/02 09:23:27;;;;;;;43.20;29.85;;;7.00;99.90;;;;;;5045992;28;20045;-62
2022/03/02 09:25:55;;;;;;;53.05;30.88;;;7.00;99.90;;;;;;5045044;28;20051;-62
2022/03/02 09:28:21;;;;;;;47.28;31.45;;;7.10;99.90;;;;;;5045340;28;20116;-62
2022/03/02 09:30:48;;;;;;;42.15;30.40;;;7.10;99.90;;;;;;5041944;28;20493;-62
2022/03/02 09:33:15;;;;;;;43.30;30.15;;;7.20;99.90;;;;;;5042406;28;20044;-62
2022/03/02 09:35:43;;;;;;;50.38;30.73;;;7.30;99.90;;;;;;5047564;28;20124;-62
2022/03/02 09:38:09;;;;;;;46.08;30.58;;;7.40;99.90;;;;;;5043828;28;20661;-62
2022/03/02 09:40:35;;;;;;;53.83;31.73;;;7.40;99.90;;;;;;5046853;28;20033;-62
2022/03/02 09:43:03;;;;;;;42.88;27.80;;;7.60;99.90;;;;;;5049377;28;20091;-62
2022/03/02 09:45:31;;;;;;;39.35;27.58;;;8.30;99.90;;;;;;5047073;28;20049;-62
2022/03/02 09:48:05;;;;;;;45.13;30.52;;;9.10;99.90;;;;;;5046515;28;20124;-62
2022/03/02 09:50:37;;;;;;;47.50;32.72;;;9.70;99.90;;;;;;5042617;28;20049;-62
2022/03/02 09:53:14;;;;;;;41.65;28.02;;;10.70;99.90;;;;;;5048259;28;20091;-63
2022/03/02 09:55:41;;;;;;;50.85;29.45;;;11.20;99.90;;;;;;5040859;28;20049;-62
2022/03/02 09:58:07;;;;;;;41.78;29.08;;;11.60;99.90;;;;;;5044933;28;20079;-62
2022/03/02 10:00:33;;;;;;;45.42;27.83;;;11.90;99.90;;;;;;5045459;28;20053;-62
2022/03/02 10:03:01;;;;;;;43.92;29.88;;;12.10;99.90;;;;;;5050218;28;20045;-62
2022/03/02 10:05:30;;;;;;;41.20;28.80;;;12.00;99.90;;;;;;5049354;28;20037;-62
2022/03/02 10:08:04;;;;;;;39.80;29.90;;;12.00;99.90;;;;;;5040801;28;20052;-62
2022/03/02 10:10:33;;;;;;;40.42;27.88;;;12.20;99.90;;;;;;5048841;28;20072;-62
2022/03/02 10:13:02;;;;;;;40.13;28.13;;;12.20;99.90;;;;;;5050148;28;20434;-62
2022/03/02 10:15:29;;;;;;;35.67;26.48;;;11.70;99.90;;;;;;5043604;28;20077;-61
2022/03/02 10:18:01;;;;;;;35.53;26.38;;;12.00;99.90;;;;;;5042550;28;20048;-62
2022/03/02 10:20:31;;;;;;;42.72;30.75;;;11.70;99.90;;;;;;5047164;28;20389;-62
2022/03/02 10:23:34;;;;;;;42.80;29.85;;;11.70;99.90;;;;;;5051580;28;20048;-61
2022/03/02 10:26:15;;;;;;;37.78;27.50;;;11.80;99.90;;;;;;5044954;28;20047;-61
2022/03/02 10:28:47;;;;;;;37.25;26.70;;;11.90;99.90;;;;;;5038215;28;20523;-62
2022/03/02 10:31:29;;;;;;;36.42;26.77;;;11.80;99.90;;;;;;5049129;28;20171;-61
2022/03/02 10:34:01;;;;;;;41.08;27.27;;;11.80;99.90;;;;;;5048293;28;20076;-61
2022/03/02 10:36:29;;;;;;;45.40;27.73;;;12.00;99.90;;;;;;5035840;28;20060;-62
2022/03/02 10:38:58;;;;;;;36.50;28.35;;;11.90;99.90;;;;;;5045172;28;20497;-61
2022/03/02 10:41:26;;;;;;;41.85;28.63;;;11.70;99.90;;;;;;5040949;28;20498;-62
2022/03/02 10:44:02;;;;;;;39.20;30.02;;;11.60;99.90;;;;;;5047007;28;20049;-61
2022/03/02 10:46:29;;;;;;;37.70;27.23;;;11.60;99.90;;;;;;5040744;28;20063;-63
2022/03/02 10:49:18;;;;;;;39.08;27.88;;;11.60;99.90;;;;;;5040507;28;20056;-63
2022/03/02 10:51:45;;;;;;;39.15;27.45;;;11.60;99.90;;;;;;5049647;28;20049;-63
2022/03/02 10:54:15;;;;;;;43.72;28.48;;;11.40;99.90;;;;;;5048866;28;20086;-63
2022/03/02 10:56:43;;;;;;;40.08;28.25;;;11.50;99.90;;;;;;5034343;28;20091;-63
2022/03/02 10:59:16;;;;;;;39.70;27.98;;;11.50;99.90;;;;;;5048673;28;20049;-63
2022/03/02 11:01:42;;;;;;;35.42;26.77;;;11.50;99.90;;;;;;5040075;28;20045;-62
2022/03/02 11:04:08;;;;;;;43.28;29.58;;;11.70;99.90;;;;;;5041262;28;20057;-63
2022/03/02 11:06:35;;;;;;;38.80;28.40;;;11.50;99.90;;;;;;5044200;28;20596;-63
2022/03/02 11:09:03;;;;;;;51.90;31.85;;;11.70;99.90;;;;;;5048149;28;20128;-63
2022/03/02 11:11:33;;;;;;;47.13;30.67;;;11.70;99.90;;;;;;5043717;28;20037;-63
2022/03/02 11:13:59;;;;;;;37.20;27.65;;;11.80;99.90;;;;;;5044812;28;20461;-62
2022/03/02 11:16:25;;;;;;;38.95;27.15;;;12.10;99.90;;;;;;5046989;28;20086;-63
2022/03/02 11:18:55;;;;;;;46.90;28.00;;;12.00;99.90;;;;;;5047676;28;20043;-63
2022/03/02 11:21:30;;;;;;;31.52;22.73;;;12.20;99.90;;;;;;5046103;28;20045;-63
2022/03/02 11:24:00;;;;;;;37.97;26.40;;;12.30;99.90;;;;;;5037735;28;20401;-63
2022/03/02 11:26:34;;;;;;;36.85;25.83;;;12.50;99.90;;;;;;5035884;28;20534;-63
2022/03/02 11:29:18;;;;;;;32.80;25.38;;;12.80;99.90;;;;;;5048958;28;20496;-64
2022/03/02 11:31:50;;;;;;;33.42;24.20;;;12.80;99.90;;;;;;5033057;28;20091;-63
2022/03/02 11:34:22;;;;;;;34.95;24.75;;;12.90;99.90;;;;;;5047463;28;20056;-63
2022/03/02 11:36:51;;;;;;;38.22;26.55;;;13.00;99.90;;;;;;5048080;28;20094;-64
2022/03/02 11:39:19;;;;;;;36.72;28.42;;;13.20;99.90;;;;;;5044315;28;20037;-63
2022/03/02 11:41:49;;;;;;;36.97;23.92;;;13.10;99.90;;;;;;5048949;28;20045;-63
2022/03/02 11:44:29;;;;;;;33.47;24.08;;;13.30;99.90;;;;;;5037160;28;20060;-64
2022/03/02 11:46:56;;;;;;;31.35;23.92;;;13.70;99.90;;;;;;5047385;28;20059;-63
2022/03/02 11:49:57;;;;;;;36.42;25.13;;;13.80;99.90;;;;;;5043350;28;20072;-64
2022/03/02 11:52:25;;;;;;;33.20;24.20;;;14.00;99.90;;;;;;5036462;28;20424;-63
2022/03/02 11:54:55;;;;;;;37.50;25.92;;;14.10;99.90;;;;;;5048378;28;20059;-64
2022/03/02 11:57:22;;;;;;;30.98;22.60;;;14.30;99.90;;;;;;5044574;28;20060;-63
2022/03/02 11:59:50;;;;;;;37.97;24.40;;;14.40;99.90;;;;;;5045926;28;20128;-64
2022/03/02 12:02:21;;;;;;;39.42;26.13;;;14.30;99.90;;;;;;5044386;28;20048;-64
2022/03/02 12:05:05;;;;;;;32.95;24.80;;;14.50;99.90;;;;;;5033653;28;20045;-63
2022/03/02 12:07:51;;;;;;;36.72;23.80;;;14.70;99.90;;;;;;5045454;28;20575;-63
2022/03/02 12:10:23;;;;;;;30.05;22.05;;;14.60;99.90;;;;;;5047806;28;20397;-64
2022/03/02 12:12:50;;;;;;;29.83;20.92;;;15.00;99.90;;;;;;5045525;28;20463;-63
2022/03/02 12:15:17;;;;;;;33.35;23.83;;;15.10;99.90;;;;;;5038902;28;20048;-64
2022/03/02 12:17:43;;;;;;;28.15;21.92;;;15.40;99.90;;;;;;5040096;28;20037;-64
2022/03/02 12:20:15;;;;;;;33.10;24.45;;;15.60;99.90;;;;;;5039669;28;20055;-64
2022/03/02 12:22:48;;;;;;;32.80;24.17;;;15.60;99.90;;;;;;5042945;28;20719;-64
2022/03/02 12:25:16;;;;;;;38.70;23.33;;;15.70;99.90;;;;;;5045033;28;20088;-64
2022/03/02 12:28:00;;;;;;;29.23;22.50;;;15.80;99.90;;;;;;5043545;28;20436;-64
2022/03/02 12:30:34;;;;;;;33.10;24.77;;;15.90;98.10;;;;;;5047967;28;20093;-64
2022/03/02 12:33:00;;;;;;;37.63;25.50;;;16.00;97.60;;;;;;5047588;28;20060;-64
2022/03/02 12:35:27;;;;;;;32.35;22.70;;;16.00;98.70;;;;;;5042813;28;20407;-64
2022/03/02 12:37:59;;;;;;;29.83;21.92;;;16.00;98.40;;;;;;5047034;28;20049;-64
2022/03/02 12:40:28;;;;;;;28.27;21.83;;;16.30;98.80;;;;;;5045064;28;20049;-64
2022/03/02 12:42:55;;;;;;;34.15;22.48;;;16.00;98.40;;;;;;5047385;28;20052;-64